createdAt,value
2023-01-13T00:00:11.795Z,68.11
2023-01-13T00:01:11.765Z,62.50
2023-01-13T00:02:11.780Z,64.13
2023-01-13T00:03:11.946Z,63.61
2023-01-13T00:04:11.788Z,60.93
2023-01-13T00:05:11.802Z,67.47
2023-01-13T00:06:11.756Z,71.76
2023-01-13T00:07:11.760Z,60.03
2023-01-13T00:08:11.691Z,68.76
2023-01-13T00:09:11.624Z,63.52
2023-01-13T00:10:11.708Z,49.97
2023-01-13T00:11:11.683Z,57.25
2023-01-13T00:12:11.584Z,72.26
2023-01-13T00:13:11.602Z,66.19
2023-01-13T00:14:11.664Z,70.26
2023-01-13T00:15:11.639Z,62.49
2023-01-13T00:16:11.611Z,73.96
2023-01-13T00:17:11.599Z,72.79
2023-01-13T00:18:11.575Z,70.39
2023-01-13T00:19:11.554Z,69.35
2023-01-13T00:20:11.577Z,70.62
2023-01-13T00:21:11.515Z,73.49
2023-01-13T00:22:11.491Z,64.24
2023-01-13T00:23:11.529Z,73.79
2023-01-13T00:24:11.503Z,72.27
2023-01-13T00:25:11.505Z,67.68
2023-01-13T00:26:11.562Z,69.16
2023-01-13T00:27:11.460Z,67.59
2023-01-13T00:28:11.476Z,69.47
2023-01-13T00:29:11.429Z,69.51
2023-01-13T00:30:11.431Z,70.24
2023-01-13T00:31:11.450Z,69.40
2023-01-13T00:32:11.408Z,64.98
2023-01-13T00:33:11.367Z,60.39
2023-01-13T00:34:11.477Z,65.16
2023-01-13T00:35:11.366Z,70.20
2023-01-13T00:36:11.360Z,70.92
2023-01-13T00:37:11.385Z,63.89
2023-01-13T00:38:11.377Z,72.49
2023-01-13T00:39:11.328Z,72.49
2023-01-13T00:40:11.308Z,68.57
2023-01-13T00:41:11.273Z,70.86
2023-01-13T00:42:11.284Z,63.71
2023-01-13T00:43:11.272Z,71.32
2023-01-13T00:44:11.318Z,64.50
2023-01-13T00:45:11.316Z,64.44
2023-01-13T00:46:11.333Z,55.95
2023-01-13T00:47:11.248Z,65.29
2023-01-13T00:48:11.241Z,69.24
2023-01-13T00:49:11.296Z,69.56
2023-01-13T00:50:11.221Z,68.65
2023-01-13T00:51:11.239Z,59.76
2023-01-13T00:52:11.156Z,71.15
2023-01-13T00:53:11.205Z,65.58
2023-01-13T00:54:11.237Z,63.01
2023-01-13T00:55:11.226Z,62.14
2023-01-13T00:56:11.215Z,53.16
2023-01-13T00:57:11.187Z,69.11
2023-01-13T00:58:11.141Z,63.15
2023-01-13T00:59:12.124Z,66.55
2023-01-13T01:00:11.118Z,66.56
2023-01-13T01:01:11.306Z,69.14
2023-01-13T01:02:11.213Z,65.14
2023-01-13T01:03:11.058Z,59.81
2023-01-13T01:04:11.148Z,65.97
2023-01-13T01:05:11.079Z,68.65
2023-01-13T01:06:11.064Z,71.71
2023-01-13T01:07:11.038Z,65.68
2023-01-13T01:08:11.017Z,66.99
2023-01-13T01:09:11.090Z,67.34
2023-01-13T01:10:10.962Z,60.61
2023-01-13T01:11:11.038Z,61.59
2023-01-13T01:12:10.963Z,70.94
2023-01-13T01:13:10.963Z,55.21
2023-01-13T01:14:10.934Z,61.68
2023-01-13T01:15:10.891Z,67.27
2023-01-13T01:16:10.924Z,71.50
2023-01-13T01:17:10.883Z,68.35
2023-01-13T01:18:10.880Z,54.03
2023-01-13T01:19:10.889Z,65.06
2023-01-13T01:20:10.837Z,69.14
2023-01-13T01:21:10.843Z,60.88
2023-01-13T01:22:10.843Z,58.12
2023-01-13T01:23:10.831Z,62.34
2023-01-13T01:24:10.800Z,58.71
2023-01-13T01:25:10.787Z,55.42
2023-01-13T01:26:10.788Z,61.93
2023-01-13T01:27:10.779Z,67.44
2023-01-13T01:28:10.771Z,63.23
2023-01-13T01:29:10.761Z,66.24
2023-01-13T01:30:10.742Z,72.59
2023-01-13T01:31:10.750Z,71.80
2023-01-13T01:32:10.743Z,66.97
2023-01-13T01:33:10.727Z,63.22
2023-01-13T01:34:10.734Z,58.54
2023-01-13T01:35:11.354Z,60.20
2023-01-13T01:36:10.661Z,67.72
2023-01-13T01:37:10.672Z,66.57
2023-01-13T01:38:10.615Z,64.98
2023-01-13T01:39:10.644Z,64.44
2023-01-13T01:40:10.659Z,61.78
2023-01-13T01:41:10.633Z,60.79
2023-01-13T01:42:10.623Z,59.11
2023-01-13T01:43:10.577Z,62.71
2023-01-13T01:44:10.602Z,67.88
2023-01-13T01:45:10.545Z,73.04
2023-01-13T01:46:10.574Z,62.34
2023-01-13T01:47:10.576Z,68.44
2023-01-13T01:48:10.560Z,71.61
2023-01-13T01:49:10.531Z,68.69
2023-01-13T01:50:10.525Z,59.70
2023-01-13T01:51:10.501Z,54.00
2023-01-13T01:52:10.544Z,57.63
2023-01-13T01:53:10.477Z,58.90
2023-01-13T01:54:10.487Z,64.40
2023-01-13T01:55:10.470Z,72.02
2023-01-13T01:56:10.406Z,62.62
2023-01-13T01:57:10.478Z,62.38
2023-01-13T01:58:10.459Z,61.31
2023-01-13T01:59:10.390Z,70.51
2023-01-13T02:00:10.425Z,65.95
2023-01-13T02:01:10.579Z,69.84
2023-01-13T02:02:10.491Z,62.42
2023-01-13T02:03:10.419Z,67.46
2023-01-13T02:04:10.373Z,67.53
2023-01-13T02:05:10.342Z,68.38
2023-01-13T02:06:10.339Z,68.88
2023-01-13T02:07:10.330Z,69.44
2023-01-13T02:08:10.356Z,71.67
2023-01-13T02:09:11.343Z,70.13
2023-01-13T02:10:10.321Z,67.15
2023-01-13T02:11:10.347Z,68.67
2023-01-13T02:12:10.323Z,72.12
2023-01-13T02:13:10.285Z,68.28
2023-01-13T02:14:10.257Z,67.59
2023-01-13T02:15:10.226Z,71.46
2023-01-13T02:16:10.324Z,67.16
2023-01-13T02:17:10.234Z,71.43
2023-01-13T02:18:10.231Z,63.78
2023-01-13T02:19:10.251Z,73.63
2023-01-13T02:20:10.249Z,73.36
2023-01-13T02:21:10.206Z,72.74
2023-01-13T02:22:10.174Z,74.08
2023-01-13T02:23:10.144Z,71.83
2023-01-13T02:24:10.324Z,69.85
2023-01-13T02:25:10.142Z,68.47
2023-01-13T02:26:10.159Z,68.61
2023-01-13T02:27:10.154Z,66.47
2023-01-13T02:28:10.683Z,65.62
2023-01-13T02:29:10.144Z,73.33
2023-01-13T02:30:10.095Z,63.01
2023-01-13T02:31:10.129Z,63.62
2023-01-13T02:32:10.062Z,69.70
2023-01-13T02:33:10.103Z,67.76
2023-01-13T02:34:10.039Z,57.25
2023-01-13T02:35:10.101Z,52.42
2023-01-13T02:36:10.016Z,71.13
2023-01-13T02:37:10.019Z,64.88
2023-01-13T02:38:10.026Z,67.99
2023-01-13T02:39:10.010Z,68.05
2023-01-13T02:40:10.038Z,70.43
2023-01-13T02:41:10.005Z,72.00
2023-01-13T02:42:09.937Z,67.94
2023-01-13T02:43:09.933Z,73.92
2023-01-13T02:44:09.918Z,61.33
2023-01-13T02:45:09.930Z,67.90
2023-01-13T02:46:10.018Z,71.40
2023-01-13T02:47:09.927Z,68.77
2023-01-13T02:48:09.932Z,69.92
2023-01-13T02:49:09.925Z,63.64
2023-01-13T02:50:09.847Z,60.99
2023-01-13T02:51:10.864Z,70.61
2023-01-13T02:52:09.825Z,65.67
2023-01-13T02:53:09.909Z,63.53
2023-01-13T02:54:09.822Z,63.95
2023-01-13T02:55:11.277Z,51.24
2023-01-13T02:56:09.827Z,64.40
2023-01-13T02:57:09.788Z,64.34
2023-01-13T02:58:09.836Z,71.10
2023-01-13T02:59:09.806Z,68.77
2023-01-13T03:00:09.779Z,67.84
2023-01-13T03:01:09.875Z,69.35
2023-01-13T03:02:09.980Z,62.00
2023-01-13T03:03:09.816Z,70.53
2023-01-13T03:04:09.813Z,71.64
2023-01-13T03:05:09.748Z,63.12
2023-01-13T03:06:09.761Z,69.59
2023-01-13T03:07:09.759Z,68.02
2023-01-13T03:08:09.757Z,64.23
2023-01-13T03:09:09.738Z,65.51
2023-01-13T03:10:09.753Z,71.42
2023-01-13T03:11:09.740Z,62.62
2023-01-13T03:12:09.681Z,68.71
2023-01-13T03:13:09.725Z,69.13
2023-01-13T03:14:09.669Z,72.76
2023-01-13T03:15:09.655Z,69.84
2023-01-13T03:16:10.489Z,61.53
2023-01-13T03:17:09.644Z,68.54
2023-01-13T03:18:09.630Z,62.49
2023-01-13T03:19:09.664Z,73.85
2023-01-13T03:20:09.615Z,69.67
2023-01-13T03:21:09.589Z,74.73
2023-01-13T03:22:09.601Z,68.57
2023-01-13T03:23:10.390Z,63.43
2023-01-13T03:24:09.581Z,64.03
2023-01-13T03:25:09.549Z,72.72
2023-01-13T03:26:09.644Z,75.84
2023-01-13T03:27:09.685Z,67.66
2023-01-13T03:28:09.546Z,73.63
2023-01-13T03:29:09.553Z,66.08
2023-01-13T03:30:09.495Z,71.92
2023-01-13T03:31:09.548Z,72.98
2023-01-13T03:32:09.578Z,66.98
2023-01-13T03:33:09.472Z,72.48
2023-01-13T03:34:09.416Z,69.02
2023-01-13T03:35:09.540Z,69.60
2023-01-13T03:36:09.488Z,72.07
2023-01-13T03:37:09.442Z,65.48
2023-01-13T03:38:09.662Z,70.20
2023-01-13T03:39:09.445Z,64.77
2023-01-13T03:40:09.867Z,68.52
2023-01-13T03:41:10.472Z,72.36
2023-01-13T03:42:09.630Z,69.25
2023-01-13T03:43:09.350Z,68.08
2023-01-13T03:44:09.382Z,71.21
2023-01-13T03:45:09.397Z,72.11
2023-01-13T03:46:09.501Z,70.44
2023-01-13T03:47:09.386Z,71.91
2023-01-13T03:48:09.478Z,68.49
2023-01-13T03:49:09.303Z,72.66
2023-01-13T03:50:09.417Z,68.89
2023-01-13T03:51:09.287Z,71.68
2023-01-13T03:52:09.622Z,69.89
2023-01-13T03:53:09.205Z,73.65
2023-01-13T03:54:09.249Z,75.97
2023-01-13T03:55:09.209Z,72.24
2023-01-13T03:56:09.317Z,68.98
2023-01-13T03:57:09.246Z,71.47
2023-01-13T03:58:09.914Z,70.38
2023-01-13T03:59:09.193Z,66.89
2023-01-13T04:00:09.830Z,70.56
2023-01-13T04:01:09.248Z,68.51
2023-01-13T04:02:09.460Z,68.22
2023-01-13T04:03:09.129Z,72.20
2023-01-13T04:04:09.183Z,70.01
2023-01-13T04:05:09.121Z,70.58
2023-01-13T04:06:09.131Z,71.68
2023-01-13T04:07:09.205Z,70.32
2023-01-13T04:08:09.129Z,68.48
2023-01-13T04:09:09.064Z,71.95
2023-01-13T04:10:09.092Z,75.87
2023-01-13T04:11:09.082Z,75.93
2023-01-13T04:12:09.003Z,73.11
2023-01-13T04:13:09.040Z,74.63
2023-01-13T04:14:09.027Z,77.70
2023-01-13T04:15:09.033Z,76.69
2023-01-13T04:16:09.041Z,74.18
2023-01-13T04:17:08.960Z,75.65
2023-01-13T04:18:08.941Z,76.08
2023-01-13T04:19:09.016Z,73.32
2023-01-13T04:20:08.981Z,74.93
2023-01-13T04:21:08.956Z,72.32
2023-01-13T04:22:08.893Z,73.75
2023-01-13T04:23:08.902Z,75.29
2023-01-13T04:24:08.920Z,75.81
2023-01-13T04:25:08.853Z,75.39
2023-01-13T04:26:08.885Z,74.92
2023-01-13T04:27:08.931Z,76.16
2023-01-13T04:28:08.856Z,75.15
2023-01-13T04:29:08.933Z,74.86
2023-01-13T04:30:09.192Z,76.34
2023-01-13T04:31:09.145Z,78.93
2023-01-13T04:32:08.821Z,76.23
2023-01-13T04:33:08.860Z,76.15
2023-01-13T04:34:09.025Z,75.01
2023-01-13T04:35:08.773Z,76.46
2023-01-13T04:36:08.869Z,77.41
2023-01-13T04:37:08.957Z,77.93
2023-01-13T04:38:08.740Z,76.71
2023-01-13T04:39:08.770Z,77.14
2023-01-13T04:40:08.726Z,79.20
2023-01-13T04:41:08.700Z,79.31
2023-01-13T04:42:08.834Z,74.75
2023-01-13T04:43:08.699Z,75.03
2023-01-13T04:44:08.649Z,77.33
2023-01-13T04:45:08.674Z,77.41
2023-01-13T04:46:08.694Z,77.34
2023-01-13T04:47:08.647Z,76.96
2023-01-13T04:48:08.644Z,79.95
2023-01-13T04:49:08.658Z,78.50
2023-01-13T04:50:08.619Z,76.22
2023-01-13T04:51:08.600Z,78.07
2023-01-13T04:52:08.580Z,75.43
2023-01-13T04:53:08.588Z,77.03
2023-01-13T04:54:08.538Z,77.42
2023-01-13T04:55:08.539Z,77.02
2023-01-13T04:56:08.547Z,77.43
2023-01-13T04:57:08.578Z,78.30
2023-01-13T04:58:08.509Z,76.60
2023-01-13T04:59:08.523Z,76.18
2023-01-13T05:00:08.470Z,75.91
2023-01-13T05:01:08.645Z,77.17
2023-01-13T05:02:08.532Z,77.51
2023-01-13T05:03:08.462Z,77.84
2023-01-13T05:04:08.449Z,77.63
2023-01-13T05:05:08.453Z,78.34
2023-01-13T05:06:08.425Z,76.36
2023-01-13T05:07:08.422Z,77.51
2023-01-13T05:08:08.443Z,75.65
2023-01-13T05:09:08.388Z,76.46
2023-01-13T05:10:08.369Z,76.14
2023-01-13T05:11:08.361Z,76.55
2023-01-13T05:12:08.391Z,76.59
2023-01-13T05:13:08.362Z,76.70
2023-01-13T05:14:08.371Z,77.41
2023-01-13T05:15:08.340Z,76.08
2023-01-13T05:16:11.171Z,78.67
2023-01-13T05:17:08.315Z,77.51
2023-01-13T05:18:08.288Z,77.63
2023-01-13T05:19:08.430Z,79.39
2023-01-13T05:20:08.241Z,79.39
2023-01-13T05:21:09.225Z,78.82
2023-01-13T05:22:08.227Z,78.40
2023-01-13T05:23:08.342Z,78.04
2023-01-13T05:24:08.221Z,77.32
2023-01-13T05:25:08.335Z,77.47
2023-01-13T05:26:08.199Z,78.21
2023-01-13T05:27:08.261Z,77.97
2023-01-13T05:28:08.162Z,79.97
2023-01-13T05:29:08.169Z,76.54
2023-01-13T05:30:08.145Z,80.33
2023-01-13T05:31:08.167Z,79.19
2023-01-13T05:32:08.174Z,79.39
2023-01-13T05:33:08.124Z,78.96
2023-01-13T05:34:08.109Z,79.42
2023-01-13T05:35:08.073Z,80.94
2023-01-13T05:36:08.078Z,79.11
2023-01-13T05:37:08.114Z,79.88
2023-01-13T05:38:08.050Z,77.95
2023-01-13T05:39:08.086Z,80.84
2023-01-13T05:40:08.030Z,80.03
2023-01-13T05:41:08.046Z,79.42
2023-01-13T05:42:08.018Z,80.03
2023-01-13T05:43:07.995Z,79.21
2023-01-13T05:44:07.994Z,80.44
2023-01-13T05:45:08.000Z,79.50
2023-01-13T05:46:08.108Z,78.98
2023-01-13T05:47:07.986Z,81.08
2023-01-13T05:48:07.979Z,79.67
2023-01-13T05:49:07.921Z,78.39
2023-01-13T05:50:07.943Z,80.10
2023-01-13T05:51:07.964Z,79.86
2023-01-13T05:52:07.916Z,78.80
2023-01-13T05:53:07.932Z,80.90
2023-01-13T05:54:07.900Z,79.63
2023-01-13T05:55:07.891Z,78.69
2023-01-13T05:56:07.857Z,77.37
2023-01-13T05:57:07.933Z,78.87
2023-01-13T05:58:07.845Z,77.94
2023-01-13T05:59:07.814Z,77.55
2023-01-13T06:00:07.826Z,78.63
2023-01-13T06:01:07.946Z,77.19
2023-01-13T06:02:07.780Z,77.80
2023-01-13T06:03:07.889Z,77.45
2023-01-13T06:04:08.322Z,78.19
2023-01-13T06:05:07.760Z,78.87
2023-01-13T06:06:07.727Z,78.36
2023-01-13T06:07:07.776Z,79.22
2023-01-13T06:08:07.723Z,79.60
2023-01-13T06:09:07.747Z,76.01
2023-01-13T06:10:07.743Z,79.12
2023-01-13T06:11:07.697Z,80.88
2023-01-13T06:12:07.698Z,79.28
2023-01-13T06:13:07.656Z,78.24
2023-01-13T06:14:07.667Z,79.59
2023-01-13T06:15:07.643Z,80.67
2023-01-13T06:16:07.747Z,78.71
2023-01-13T06:17:07.629Z,78.72
2023-01-13T06:18:07.674Z,78.42
2023-01-13T06:19:07.638Z,79.72
2023-01-13T06:20:07.610Z,78.76
2023-01-13T06:21:07.656Z,78.28
2023-01-13T06:22:07.555Z,80.11
2023-01-13T06:23:07.644Z,79.81
2023-01-13T06:24:07.612Z,78.50
2023-01-13T06:25:07.593Z,78.24
2023-01-13T06:26:07.579Z,78.44
2023-01-13T06:27:07.558Z,79.69
2023-01-13T06:28:08.381Z,80.32
2023-01-13T06:29:07.544Z,79.53
2023-01-13T06:30:07.523Z,78.79
2023-01-13T06:31:07.628Z,79.96
2023-01-13T06:32:07.498Z,78.64
2023-01-13T06:33:07.574Z,78.19
2023-01-13T06:34:07.467Z,78.59
2023-01-13T06:35:07.643Z,80.11
2023-01-13T06:36:07.547Z,78.34
2023-01-13T06:37:07.450Z,80.35
2023-01-13T06:38:07.449Z,77.66
2023-01-13T06:39:07.430Z,79.05
2023-01-13T06:40:07.383Z,80.50
2023-01-13T06:41:07.451Z,79.56
2023-01-13T06:42:08.463Z,79.77
2023-01-13T06:43:07.491Z,77.87
2023-01-13T06:44:07.508Z,78.78
2023-01-13T06:45:07.393Z,78.40
2023-01-13T06:46:07.406Z,79.05
2023-01-13T06:47:07.330Z,79.92
2023-01-13T06:48:07.335Z,78.08
2023-01-13T06:49:07.315Z,77.50
2023-01-13T06:50:07.379Z,79.20
2023-01-13T06:51:07.302Z,78.11
2023-01-13T06:52:07.334Z,78.32
2023-01-13T06:53:07.331Z,77.04
2023-01-13T06:54:07.227Z,78.42
2023-01-13T06:55:07.403Z,79.58
2023-01-13T06:56:08.374Z,78.69
2023-01-13T06:57:07.289Z,77.83
2023-01-13T06:58:07.210Z,78.70
2023-01-13T06:59:07.175Z,78.77
2023-01-13T07:00:07.231Z,77.92
2023-01-13T07:01:07.354Z,79.43
2023-01-13T07:02:07.396Z,78.18
2023-01-13T07:03:07.252Z,76.19
2023-01-13T07:04:07.139Z,78.18
2023-01-13T07:05:07.120Z,77.62
2023-01-13T07:06:07.120Z,77.28
2023-01-13T07:07:07.218Z,76.93
2023-01-13T07:08:07.207Z,78.02
2023-01-13T07:09:07.098Z,78.74
2023-01-13T07:10:07.231Z,78.59
2023-01-13T07:11:07.090Z,78.16
2023-01-13T07:12:07.172Z,79.75
2023-01-13T07:13:07.023Z,76.82
2023-01-13T07:14:07.184Z,78.69
2023-01-13T07:15:07.004Z,77.63
2023-01-13T07:16:07.106Z,77.72
2023-01-13T07:17:07.211Z,77.92
2023-01-13T07:18:07.028Z,79.37
2023-01-13T07:19:06.967Z,77.52
2023-01-13T07:20:07.017Z,79.04
2023-01-13T07:21:07.010Z,77.14
2023-01-13T07:22:06.971Z,78.92
2023-01-13T07:23:07.009Z,75.79
2023-01-13T07:24:06.937Z,78.50
2023-01-13T07:25:07.084Z,77.11
2023-01-13T07:26:06.908Z,79.56
2023-01-13T07:27:06.918Z,77.53
2023-01-13T07:28:06.943Z,77.00
2023-01-13T07:29:06.864Z,77.95
2023-01-13T07:30:06.836Z,77.46
2023-01-13T07:31:06.886Z,79.05
2023-01-13T07:32:06.904Z,78.48
2023-01-13T07:33:06.862Z,78.94
2023-01-13T07:34:06.864Z,74.54
2023-01-13T07:35:08.717Z,77.01
2023-01-13T07:36:06.820Z,77.60
2023-01-13T07:37:06.842Z,79.57
2023-01-13T07:38:06.834Z,78.21
2023-01-13T07:39:06.847Z,79.35
2023-01-13T07:40:06.774Z,78.32
2023-01-13T07:41:06.722Z,76.74
2023-01-13T07:42:06.747Z,79.66
2023-01-13T07:43:06.732Z,78.73
2023-01-13T07:44:06.703Z,79.08
2023-01-13T07:45:06.699Z,79.77
2023-01-13T07:46:06.726Z,77.60
2023-01-13T07:47:06.673Z,77.51
2023-01-13T07:48:06.721Z,77.04
2023-01-13T07:49:06.702Z,77.60
2023-01-13T07:50:06.675Z,79.00
2023-01-13T07:51:06.671Z,76.14
2023-01-13T07:52:06.592Z,77.04
2023-01-13T07:53:06.652Z,78.62
2023-01-13T07:54:06.628Z,78.08
2023-01-13T07:55:06.602Z,78.39
2023-01-13T07:56:06.554Z,74.33
2023-01-13T07:57:06.538Z,79.20
2023-01-13T07:58:06.765Z,76.40
2023-01-13T07:59:06.561Z,78.47
2023-01-13T08:00:06.508Z,77.36
2023-01-13T08:01:06.594Z,77.36
2023-01-13T08:02:06.628Z,76.82
2023-01-13T08:03:06.552Z,76.28
2023-01-13T08:04:06.489Z,77.14
2023-01-13T08:05:06.484Z,76.04
2023-01-13T08:06:06.443Z,77.29
2023-01-13T08:07:06.474Z,76.11
2023-01-13T08:08:06.456Z,77.23
2023-01-13T08:09:06.364Z,76.25
2023-01-13T08:10:06.431Z,76.85
2023-01-13T08:11:06.380Z,77.90
2023-01-13T08:12:06.455Z,76.14
2023-01-13T08:13:06.341Z,76.28
2023-01-13T08:14:06.343Z,77.55
2023-01-13T08:15:06.354Z,77.32
2023-01-13T08:16:06.351Z,74.88
2023-01-13T08:17:06.344Z,76.69
2023-01-13T08:18:06.330Z,78.39
2023-01-13T08:19:06.289Z,77.86
2023-01-13T08:20:06.281Z,77.85
2023-01-13T08:21:06.311Z,74.58
2023-01-13T08:22:06.858Z,76.56
2023-01-13T08:23:07.348Z,77.91
2023-01-13T08:24:06.249Z,77.41
2023-01-13T08:25:06.275Z,78.23
2023-01-13T08:26:06.232Z,77.64
2023-01-13T08:27:06.188Z,79.37
2023-01-13T08:28:06.266Z,76.69
2023-01-13T08:29:06.215Z,77.39
2023-01-13T08:30:06.176Z,77.43
2023-01-13T08:31:06.832Z,78.91
2023-01-13T08:32:06.161Z,78.27
2023-01-13T08:33:06.170Z,79.54
2023-01-13T08:34:06.156Z,75.26
2023-01-13T08:35:06.112Z,77.18
2023-01-13T08:36:06.117Z,79.00
2023-01-13T08:37:06.109Z,77.88
2023-01-13T08:38:06.153Z,78.76
2023-01-13T08:39:06.115Z,78.45
2023-01-13T08:40:06.065Z,77.99
2023-01-13T08:41:06.066Z,79.14
2023-01-13T08:42:06.065Z,77.96
2023-01-13T08:43:06.037Z,77.69
2023-01-13T08:44:06.021Z,77.38
2023-01-13T08:45:06.016Z,76.84
2023-01-13T08:46:06.040Z,78.87
2023-01-13T08:47:05.974Z,78.31
2023-01-13T08:48:05.992Z,76.55
2023-01-13T08:49:06.006Z,76.39
2023-01-13T08:50:05.980Z,76.48
2023-01-13T08:51:05.938Z,78.07
2023-01-13T08:52:05.917Z,79.85
2023-01-13T08:53:05.906Z,77.76
2023-01-13T08:54:05.950Z,76.60
2023-01-13T08:55:05.900Z,77.93
2023-01-13T08:56:05.911Z,76.72
2023-01-13T08:57:05.965Z,78.76
2023-01-13T08:58:15.242Z,77.84
2023-01-13T08:59:07.870Z,78.29
2023-01-13T09:00:05.927Z,77.70
2023-01-13T09:01:06.055Z,75.13
2023-01-13T09:02:05.970Z,78.23
2023-01-13T09:03:05.846Z,78.96
2023-01-13T09:04:05.920Z,75.81
2023-01-13T09:05:05.900Z,78.80
2023-01-13T09:06:05.778Z,77.62
2023-01-13T09:07:05.790Z,76.63
2023-01-13T09:08:05.779Z,75.28
2023-01-13T09:09:05.746Z,77.35
2023-01-13T09:10:05.752Z,77.57
2023-01-13T09:11:05.744Z,76.20
2023-01-13T09:12:05.737Z,76.20
2023-01-13T09:13:05.747Z,76.91
2023-01-13T09:14:05.687Z,78.96
2023-01-13T09:15:05.692Z,77.13
2023-01-13T09:16:05.711Z,77.02
2023-01-13T09:17:05.635Z,77.63
2023-01-13T09:18:06.650Z,78.03
2023-01-13T09:19:05.685Z,76.07
2023-01-13T09:20:05.614Z,78.67
2023-01-13T09:21:05.584Z,76.38
2023-01-13T09:22:05.606Z,78.06
2023-01-13T09:23:06.907Z,77.78
2023-01-13T09:24:05.568Z,76.83
2023-01-13T09:25:05.610Z,76.38
2023-01-13T09:26:05.552Z,77.05
2023-01-13T09:27:05.535Z,74.83
2023-01-13T09:28:06.323Z,76.94
2023-01-13T09:29:05.523Z,75.94
2023-01-13T09:30:05.482Z,73.77
2023-01-13T09:31:05.505Z,76.45
2023-01-13T09:32:05.480Z,75.75
2023-01-13T09:33:06.289Z,74.42
2023-01-13T09:34:06.794Z,77.28
2023-01-13T09:35:05.432Z,78.24
2023-01-13T09:36:05.488Z,77.29
2023-01-13T09:37:05.457Z,75.77
2023-01-13T09:38:05.415Z,75.27
2023-01-13T09:39:05.425Z,78.16
2023-01-13T09:40:05.409Z,78.39
2023-01-13T09:41:05.407Z,75.90
2023-01-13T09:42:05.357Z,78.16
2023-01-13T09:43:05.404Z,76.96
2023-01-13T09:44:05.328Z,76.26
2023-01-13T09:45:05.348Z,77.66
2023-01-13T09:46:05.406Z,76.95
2023-01-13T09:47:05.332Z,76.49
2023-01-13T09:48:05.378Z,76.22
2023-01-13T09:49:05.356Z,75.69
2023-01-13T09:50:05.277Z,78.77
2023-01-13T09:51:05.317Z,76.39
2023-01-13T09:52:05.434Z,77.84
2023-01-13T09:53:05.264Z,76.35
2023-01-13T09:54:05.270Z,77.95
2023-01-13T09:55:05.236Z,77.53
2023-01-13T09:56:05.220Z,77.03
2023-01-13T09:57:05.236Z,77.19
2023-01-13T09:58:07.035Z,75.99
2023-01-13T09:59:05.263Z,75.99
2023-01-13T10:00:05.238Z,76.53
2023-01-13T10:01:05.251Z,74.34
2023-01-13T10:02:05.335Z,79.00
2023-01-13T10:03:05.370Z,77.76
2023-01-13T10:04:07.246Z,78.05
2023-01-13T10:05:05.190Z,79.76
2023-01-13T10:06:05.213Z,78.25
2023-01-13T10:07:05.261Z,75.90
2023-01-13T10:08:05.198Z,75.37
2023-01-13T10:09:05.205Z,76.42
2023-01-13T10:10:05.992Z,78.35
2023-01-13T10:11:05.073Z,73.79
2023-01-13T10:12:05.153Z,77.33
2023-01-13T10:13:05.117Z,77.34
2023-01-13T10:14:05.070Z,77.40
2023-01-13T10:15:05.062Z,78.15
2023-01-13T10:16:05.018Z,76.08
2023-01-13T10:17:05.019Z,78.37
2023-01-13T10:18:04.986Z,78.86
2023-01-13T10:19:05.084Z,76.95
2023-01-13T10:20:05.018Z,79.10
2023-01-13T10:21:06.004Z,75.02
2023-01-13T10:22:05.143Z,76.87
2023-01-13T10:23:05.021Z,79.00
2023-01-13T10:24:04.955Z,77.41
2023-01-13T10:25:04.955Z,76.23
2023-01-13T10:26:04.948Z,75.41
2023-01-13T10:27:04.932Z,77.42
2023-01-13T10:28:04.914Z,77.29
2023-01-13T10:29:05.217Z,77.65
2023-01-13T10:30:04.975Z,77.76
2023-01-13T10:31:05.097Z,79.25
2023-01-13T10:32:04.837Z,74.11
2023-01-13T10:33:04.875Z,76.14
2023-01-13T10:34:04.791Z,75.93
2023-01-13T10:35:04.870Z,77.76
2023-01-13T10:36:04.871Z,75.57
2023-01-13T10:37:04.871Z,78.06
2023-01-13T10:38:04.739Z,76.71
2023-01-13T10:39:04.874Z,76.64
2023-01-13T10:40:05.202Z,76.95
2023-01-13T10:41:04.827Z,79.05
2023-01-13T10:42:04.717Z,78.44
2023-01-13T10:43:04.767Z,76.48
2023-01-13T10:44:04.695Z,77.88
2023-01-13T10:45:04.782Z,75.85
2023-01-13T10:46:04.874Z,76.38
2023-01-13T10:47:04.747Z,77.37
2023-01-13T10:48:04.643Z,78.79
2023-01-13T10:49:04.674Z,79.30
2023-01-13T10:50:04.921Z,79.04
2023-01-13T10:51:04.615Z,78.27
2023-01-13T10:52:04.692Z,77.72
2023-01-13T10:53:04.625Z,75.73
2023-01-13T10:54:04.731Z,75.32
2023-01-13T10:55:04.736Z,76.87
2023-01-13T10:56:04.749Z,76.49
2023-01-13T10:57:04.676Z,78.32
2023-01-13T10:58:04.549Z,76.96
2023-01-13T10:59:04.607Z,77.21
2023-01-13T11:00:04.591Z,77.13
2023-01-13T11:01:04.546Z,78.42
2023-01-13T11:02:19.872Z,78.81
2023-01-13T11:03:05.554Z,78.22
2023-01-13T11:04:04.571Z,77.63
2023-01-13T11:05:04.494Z,76.50
2023-01-13T11:06:04.516Z,77.08
2023-01-13T11:07:04.451Z,77.29
2023-01-13T11:08:04.635Z,75.23
2023-01-13T11:09:04.436Z,78.21
2023-01-13T11:10:04.439Z,76.97
2023-01-13T11:11:04.488Z,75.51
2023-01-13T11:12:04.436Z,77.38
2023-01-13T11:13:04.445Z,77.61
2023-01-13T11:14:04.409Z,77.77
2023-01-13T11:15:04.431Z,77.81
2023-01-13T11:16:04.387Z,78.00
2023-01-13T11:17:04.410Z,78.95
2023-01-13T11:18:04.332Z,78.90
2023-01-13T11:19:04.362Z,78.00
2023-01-13T11:20:04.392Z,78.21
2023-01-13T11:21:04.362Z,77.17
2023-01-13T11:22:04.318Z,76.81
2023-01-13T11:23:05.344Z,77.73
2023-01-13T11:24:04.240Z,77.89
2023-01-13T11:25:04.373Z,77.58
2023-01-13T11:26:04.264Z,77.22
2023-01-13T11:27:04.852Z,76.54
2023-01-13T11:28:04.346Z,78.36
2023-01-13T11:29:04.326Z,78.16
2023-01-13T11:30:04.209Z,76.67
2023-01-13T11:31:04.312Z,76.99
2023-01-13T11:32:04.300Z,78.45
2023-01-13T11:33:04.249Z,79.24
2023-01-13T11:34:04.154Z,78.62
2023-01-13T11:35:04.218Z,79.21
2023-01-13T11:36:04.209Z,76.29
2023-01-13T11:37:04.113Z,78.51
2023-01-13T11:38:04.115Z,76.82
2023-01-13T11:39:04.757Z,76.88
2023-01-13T11:40:04.224Z,77.65
2023-01-13T11:41:04.178Z,78.09
2023-01-13T11:42:04.155Z,77.75
2023-01-13T11:43:04.169Z,77.16
2023-01-13T11:44:04.137Z,78.06
2023-01-13T11:45:04.067Z,78.46
2023-01-13T11:46:04.042Z,79.00
2023-01-13T11:47:04.067Z,77.91
2023-01-13T11:48:04.034Z,78.95
2023-01-13T11:49:04.016Z,77.57
2023-01-13T11:50:04.015Z,79.53
2023-01-13T11:51:03.998Z,78.28
2023-01-13T11:52:04.104Z,78.40
2023-01-13T11:53:04.027Z,78.78
2023-01-13T11:54:04.007Z,78.48
2023-01-13T11:55:04.058Z,79.22
2023-01-13T11:56:03.942Z,78.33
2023-01-13T11:57:03.972Z,77.88
2023-01-13T11:58:03.875Z,78.69
2023-01-13T11:59:03.944Z,77.40
2023-01-13T12:00:03.934Z,77.33
2023-01-13T12:01:03.947Z,76.88
2023-01-13T12:02:03.959Z,75.44
2023-01-13T12:03:03.930Z,78.18
2023-01-13T12:04:03.884Z,78.02
2023-01-13T12:05:03.852Z,77.92
2023-01-13T12:06:03.804Z,78.67
2023-01-13T12:07:03.795Z,78.60
2023-01-13T12:08:04.870Z,77.28
2023-01-13T12:09:03.820Z,77.59
2023-01-13T12:10:04.179Z,78.31
2023-01-13T12:11:03.793Z,77.22
2023-01-13T12:12:03.746Z,78.18
2023-01-13T12:13:03.791Z,78.30
2023-01-13T12:14:03.769Z,78.76
2023-01-13T12:15:03.768Z,77.97
2023-01-13T12:16:03.789Z,79.54
2023-01-13T12:17:03.796Z,79.09
2023-01-13T12:18:03.664Z,77.14
2023-01-13T12:19:03.761Z,80.84
2023-01-13T12:20:03.713Z,78.88
2023-01-13T12:21:03.638Z,78.46
2023-01-13T12:22:03.684Z,76.97
2023-01-13T12:23:03.700Z,78.16
2023-01-13T12:24:37.077Z,78.28
2023-01-13T12:25:03.599Z,77.96
2023-01-13T12:26:03.606Z,78.42
2023-01-13T12:27:03.613Z,77.61
2023-01-13T12:28:03.570Z,76.45
2023-01-13T12:29:03.555Z,79.30
2023-01-13T12:30:03.589Z,77.93
2023-01-13T12:31:03.557Z,78.54
2023-01-13T12:32:03.628Z,79.87
2023-01-13T12:33:04.514Z,80.45
2023-01-13T12:34:03.516Z,78.76
2023-01-13T12:35:03.500Z,78.06
2023-01-13T12:36:03.511Z,79.11
2023-01-13T12:37:04.108Z,77.86
2023-01-13T12:38:03.448Z,77.34
2023-01-13T12:39:04.173Z,77.74
2023-01-13T12:40:03.457Z,79.37
2023-01-13T12:41:03.453Z,78.27
2023-01-13T12:42:03.495Z,77.87
2023-01-13T12:43:03.419Z,79.67
2023-01-13T12:44:03.381Z,79.64
2023-01-13T12:45:03.374Z,80.57
2023-01-13T12:46:03.529Z,79.35
2023-01-13T12:47:03.389Z,78.47
2023-01-13T12:48:04.341Z,77.76
2023-01-13T12:49:03.355Z,76.87
2023-01-13T12:50:03.360Z,78.36
2023-01-13T12:51:03.353Z,77.77
2023-01-13T12:52:03.350Z,78.44